createdAt,value
2023-01-15T00:01:31.797Z,85.40
2023-01-15T00:04:18.716Z,85.00
2023-01-15T00:07:04.571Z,84.70
2023-01-15T00:09:53.953Z,84.70
2023-01-15T00:12:45.098Z,84.00
2023-01-15T00:15:33.102Z,84.30
2023-01-15T00:18:18.294Z,83.90
2023-01-15T00:21:08.792Z,83.80
2023-01-15T00:24:13.338Z,83.30
2023-01-15T00:27:18.667Z,83.60
2023-01-15T00:30:07.149Z,83.80
2023-01-15T00:32:52.319Z,84.00
2023-01-15T00:35:41.047Z,83.10
2023-01-15T00:38:29.234Z,83.30
2023-01-15T00:41:14.739Z,83.50
2023-01-15T00:44:00.040Z,82.60
2023-01-15T00:46:47.882Z,82.30
2023-01-15T00:49:36.091Z,81.50
2023-01-15T00:52:24.489Z,81.20
2023-01-15T00:55:16.307Z,81.30
2023-01-15T00:58:01.645Z,81.30
2023-01-15T01:00:47.211Z,81.40
2023-01-15T01:03:35.291Z,81.70
2023-01-15T01:06:29.040Z,81.60
2023-01-15T01:09:22.533Z,81.30
2023-01-15T01:12:08.511Z,81.80
2023-01-15T01:14:54.184Z,81.30
2023-01-15T01:17:40.091Z,81.00
2023-01-15T01:20:26.757Z,80.90
2023-01-15T01:23:12.748Z,80.50
2023-01-15T01:25:58.041Z,80.50
2023-01-15T01:28:44.001Z,80.20
2023-01-15T01:31:32.465Z,80.50
2023-01-15T01:34:20.631Z,80.80
2023-01-15T01:37:06.008Z,81.10
2023-01-15T01:39:51.777Z,81.20
2023-01-15T01:42:37.766Z,80.60
2023-01-15T01:45:29.322Z,80.00
2023-01-15T01:48:26.512Z,79.70
2023-01-15T01:51:12.920Z,80.30
2023-01-15T01:53:59.610Z,80.70
2023-01-15T01:56:45.796Z,80.90
2023-01-15T01:59:32.354Z,81.10
2023-01-15T02:02:21.000Z,80.60
2023-01-15T02:05:08.659Z,80.50
2023-01-15T02:07:57.651Z,80.60
2023-01-15T02:10:54.675Z,80.30
2023-01-15T02:14:06.120Z,80.50
2023-01-15T02:17:08.214Z,80.50
2023-01-15T02:20:31.314Z,79.90
2023-01-15T02:23:55.508Z,79.10
2023-01-15T02:27:06.322Z,79.10
2023-01-15T02:29:54.443Z,79.40
2023-01-15T02:32:53.105Z,79.70
2023-01-15T02:36:09.957Z,80.10
2023-01-15T02:38:58.998Z,79.70
2023-01-15T02:41:59.291Z,79.90
2023-01-15T02:44:52.329Z,79.70
2023-01-15T02:47:41.961Z,79.50
2023-01-15T02:50:43.756Z,79.90
2023-01-15T02:53:34.157Z,80.30
2023-01-15T02:56:25.827Z,80.60
2023-01-15T02:59:17.899Z,80.80
2023-01-15T03:02:09.232Z,80.70
2023-01-15T03:05:23.934Z,80.40
2023-01-15T03:08:10.946Z,80.40
2023-01-15T03:11:11.432Z,80.50
2023-01-15T03:14:07.191Z,80.30
2023-01-15T03:16:59.110Z,80.00
2023-01-15T03:19:55.481Z,80.20
2023-01-15T03:22:53.325Z,80.10
2023-01-15T03:25:45.997Z,80.90
2023-01-15T03:28:35.474Z,82.90
2023-01-15T03:31:21.595Z,85.20
2023-01-15T03:34:09.438Z,86.90
2023-01-15T03:36:55.419Z,88.00
2023-01-15T03:39:43.556Z,89.10
2023-01-15T03:42:50.306Z,89.40
2023-01-15T03:45:38.314Z,89.20
2023-01-15T03:48:30.295Z,89.20
2023-01-15T03:51:26.184Z,89.20
2023-01-15T03:54:29.194Z,88.60
2023-01-15T03:57:24.212Z,88.90
2023-01-15T04:00:15.654Z,87.80
2023-01-15T04:03:04.054Z,87.00
2023-01-15T04:05:54.568Z,86.50
2023-01-15T04:08:46.419Z,86.20
2023-01-15T04:11:32.479Z,85.50
2023-01-15T04:14:42.981Z,85.40
2023-01-15T04:17:34.623Z,85.40
2023-01-15T04:20:20.795Z,85.20
2023-01-15T04:23:08.993Z,84.60
2023-01-15T04:25:57.945Z,84.50
2023-01-15T04:28:44.133Z,84.20
2023-01-15T04:31:35.562Z,83.80
2023-01-15T04:34:22.089Z,83.50
2023-01-15T04:37:07.649Z,83.70
2023-01-15T04:39:55.255Z,83.50
2023-01-15T04:43:02.650Z,83.50
2023-01-15T04:45:48.309Z,83.80
2023-01-15T04:48:33.783Z,82.50
2023-01-15T04:51:26.239Z,82.10
2023-01-15T04:54:14.711Z,82.20
2023-01-15T04:57:11.317Z,82.60
2023-01-15T04:59:58.408Z,82.60
2023-01-15T05:02:44.166Z,82.50
2023-01-15T05:05:33.080Z,82.40
2023-01-15T05:08:18.573Z,81.70
2023-01-15T05:11:08.641Z,80.50
2023-01-15T05:13:55.362Z,80.30
2023-01-15T05:16:40.696Z,80.00
2023-01-15T05:19:33.129Z,79.90
2023-01-15T05:22:18.808Z,79.90
2023-01-15T05:25:07.374Z,78.10
2023-01-15T05:27:52.609Z,77.20
2023-01-15T05:30:47.237Z,76.20
2023-01-15T05:33:32.756Z,76.20
2023-01-15T05:36:27.239Z,75.90
2023-01-15T05:39:12.961Z,75.60
2023-01-15T05:41:58.545Z,75.60
2023-01-15T05:44:43.894Z,76.40
2023-01-15T05:47:29.317Z,75.50
2023-01-15T05:50:14.929Z,75.20
2023-01-15T05:53:00.772Z,75.40
2023-01-15T05:55:46.222Z,76.70
2023-01-15T05:58:32.583Z,76.00
2023-01-15T06:01:22.041Z,75.30
2023-01-15T06:04:08.281Z,74.70
2023-01-15T06:06:57.782Z,74.90
2023-01-15T06:09:45.091Z,75.00
2023-01-15T06:12:32.344Z,74.90
2023-01-15T06:15:17.950Z,75.00
2023-01-15T06:18:10.228Z,75.30
2023-01-15T06:20:55.724Z,75.80
2023-01-15T06:23:42.176Z,74.50
2023-01-15T06:26:31.759Z,75.20
2023-01-15T06:29:26.864Z,74.80
2023-01-15T06:32:12.008Z,73.70
2023-01-15T06:34:57.583Z,73.90
2023-01-15T06:37:43.112Z,74.20
2023-01-15T06:40:29.088Z,74.70
2023-01-15T06:43:33.191Z,75.40
2023-01-15T06:46:37.396Z,75.40
2023-01-15T06:49:22.563Z,75.50
2023-01-15T06:52:08.371Z,75.90
2023-01-15T06:54:54.144Z,75.80
2023-01-15T06:57:40.181Z,75.90
2023-01-15T07:00:25.947Z,76.10
2023-01-15T07:03:17.396Z,76.00
2023-01-15T07:06:11.011Z,76.20
2023-01-15T07:08:56.588Z,76.10
2023-01-15T07:11:51.217Z,75.90
2023-01-15T07:14:36.826Z,75.50
2023-01-15T07:17:26.286Z,75.70
2023-01-15T07:20:12.555Z,76.20
2023-01-15T07:22:57.923Z,75.70
2023-01-15T07:25:46.385Z,76.00
2023-01-15T07:28:34.607Z,75.70
2023-01-15T07:31:20.159Z,76.00
2023-01-15T07:34:05.697Z,76.60
2023-01-15T07:36:51.413Z,76.00
2023-01-15T07:39:37.237Z,75.40
2023-01-15T07:42:41.423Z,75.00
2023-01-15T07:46:07.628Z,75.20
2023-01-15T07:49:11.678Z,75.10
2023-01-15T07:51:57.762Z,74.90
2023-01-15T07:54:44.493Z,75.20
2023-01-15T07:57:35.628Z,75.50
2023-01-15T08:00:31.020Z,75.60
2023-01-15T08:03:16.633Z,76.00
2023-01-15T08:06:02.169Z,76.40
2023-01-15T08:08:47.685Z,76.60
2023-01-15T08:11:52.292Z,76.40
2023-01-15T08:14:56.225Z,76.20
2023-01-15T08:17:43.978Z,76.20
2023-01-15T08:20:31.925Z,75.80
2023-01-15T08:23:17.501Z,75.30
2023-01-15T08:26:05.253Z,75.10
2023-01-15T08:28:51.006Z,74.70
2023-01-15T08:31:37.056Z,74.70
2023-01-15T08:34:25.536Z,74.20
2023-01-15T08:37:13.948Z,74.60
2023-01-15T08:39:59.521Z,75.80
2023-01-15T08:42:44.991Z,76.10
2023-01-15T08:45:33.076Z,76.20
2023-01-15T08:48:18.520Z,76.50
2023-01-15T08:51:09.146Z,76.10
2023-01-15T08:53:54.597Z,76.10
2023-01-15T08:56:42.635Z,76.40
2023-01-15T08:59:31.389Z,75.20
2023-01-15T09:02:17.787Z,75.10
2023-01-15T09:05:06.436Z,75.20
2023-01-15T09:07:51.796Z,74.50
2023-01-15T09:10:37.618Z,74.80
2023-01-15T09:13:23.081Z,75.40
2023-01-15T09:16:09.957Z,74.60
2023-01-15T09:18:56.095Z,75.10
2023-01-15T09:21:44.705Z,75.40
2023-01-15T09:24:33.360Z,75.30
2023-01-15T09:27:21.956Z,75.00
2023-01-15T09:30:16.075Z,74.30
2023-01-15T09:33:01.646Z,73.70
2023-01-15T09:35:50.764Z,73.20
2023-01-15T09:38:36.307Z,73.20
2023-01-15T09:41:41.691Z,73.20
2023-01-15T09:44:50.437Z,72.20
2023-01-15T09:47:44.297Z,72.30
2023-01-15T09:50:36.127Z,72.00
2023-01-15T09:53:37.079Z,71.70
2023-01-15T09:56:27.885Z,71.80
2023-01-15T09:59:28.332Z,71.10
2023-01-15T10:02:35.412Z,71.30
2023-01-15T10:05:29.232Z,71.90
2023-01-15T10:08:23.337Z,72.60
2023-01-15T10:11:14.985Z,73.60
2023-01-15T10:14:06.041Z,74.20
2023-01-15T10:16:54.448Z,74.70
2023-01-15T10:19:44.731Z,74.50
2023-01-15T10:23:05.206Z,74.50
2023-01-15T10:26:16.740Z,74.20
2023-01-15T10:29:18.143Z,74.50
2023-01-15T10:32:22.207Z,74.10
2023-01-15T10:35:19.762Z,73.60
2023-01-15T10:38:16.779Z,74.40
2023-01-15T10:41:08.052Z,74.70
2023-01-15T10:44:19.564Z,74.10
2023-01-15T10:47:13.737Z,73.10
2023-01-15T10:50:01.321Z,71.20
2023-01-15T10:53:02.465Z,70.30
2023-01-15T10:55:52.775Z,69.40
2023-01-15T10:58:45.755Z,68.50
2023-01-15T11:01:31.412Z,69.20
2023-01-15T11:04:16.727Z,69.30
2023-01-15T11:07:03.335Z,70.20
2023-01-15T11:09:49.399Z,71.20
2023-01-15T11:12:53.909Z,72.20
2023-01-15T11:15:59.196Z,73.50
2023-01-15T11:19:04.958Z,74.60
2023-01-15T11:21:51.546Z,74.60
2023-01-15T11:24:45.223Z,74.50
2023-01-15T11:27:33.481Z,75.20
2023-01-15T11:30:32.462Z,75.50
2023-01-15T11:33:24.507Z,75.60
2023-01-15T11:36:39.017Z,76.00
2023-01-15T11:39:27.904Z,76.10
2023-01-15T11:42:36.697Z,75.80
2023-01-15T11:45:42.788Z,75.70
2023-01-15T11:48:46.602Z,76.80
2023-01-15T11:51:41.631Z,77.50
2023-01-15T11:54:27.582Z,79.20
2023-01-15T11:57:33.787Z,80.60
2023-01-15T12:00:30.354Z,82.70
2023-01-15T12:03:21.987Z,84.30
2023-01-15T12:06:12.790Z,85.40
2023-01-15T12:09:26.375Z,86.30
2023-01-15T12:12:34.034Z,87.60
2023-01-15T12:15:27.024Z,89.40
2023-01-15T12:18:31.233Z,89.70
2023-01-15T12:21:58.376Z,89.70
2023-01-15T12:25:13.159Z,90.50
2023-01-15T12:28:17.472Z,91.40
2023-01-15T12:31:08.804Z,91.80
2023-01-15T12:34:22.532Z,92.10
2023-01-15T12:37:22.536Z,92.30
2023-01-15T12:40:14.028Z,92.60
2023-01-15T12:43:18.568Z,92.60
2023-01-15T12:46:06.888Z,92.60
2023-01-15T12:49:32.376Z,92.30
2023-01-15T12:52:24.366Z,92.20
2023-01-15T12:55:26.737Z,91.80
2023-01-15T12:58:50.796Z,91.70
2023-01-15T13:02:09.868Z,89.00
2023-01-15T13:05:22.506Z,82.60
2023-01-15T13:08:23.277Z,79.50
2023-01-15T13:11:12.416Z,76.30
2023-01-15T13:13:58.402Z,74.50
2023-01-15T13:17:00.954Z,74.30
2023-01-15T13:20:04.853Z,74.10
2023-01-15T13:23:08.298Z,74.60
2023-01-15T13:26:05.924Z,76.60
2023-01-15T13:29:00.130Z,76.00
2023-01-15T13:32:03.909Z,76.00
2023-01-15T13:34:55.214Z,76.60
2023-01-15T13:37:48.175Z,76.90
2023-01-15T13:40:44.488Z,76.10
2023-01-15T13:43:38.203Z,76.80
2023-01-15T13:46:24.834Z,77.10
2023-01-15T13:49:21.194Z,76.60
2023-01-15T13:52:17.913Z,76.60
2023-01-15T13:55:20.166Z,78.00
2023-01-15T13:58:27.729Z,82.10
2023-01-15T14:01:21.786Z,84.50
2023-01-15T14:04:17.487Z,85.70
2023-01-15T14:07:19.815Z,85.40
2023-01-15T14:10:11.018Z,85.60
2023-01-15T14:13:19.940Z,85.50
2023-01-15T14:16:27.360Z,84.50
2023-01-15T14:19:34.760Z,85.00
2023-01-15T14:22:48.009Z,85.80
2023-01-15T14:25:43.793Z,85.60
2023-01-15T14:28:50.157Z,85.60
2023-01-15T14:31:49.166Z,85.50
2023-01-15T14:34:38.784Z,85.50
2023-01-15T14:37:31.747Z,84.30
2023-01-15T14:40:31.891Z,83.90
2023-01-15T14:43:20.668Z,82.80
2023-01-15T14:46:25.792Z,83.70
2023-01-15T14:49:32.052Z,85.30
2023-01-15T14:52:24.341Z,85.60
2023-01-15T14:55:12.633Z,85.20
2023-01-15T14:58:37.857Z,85.00
2023-01-15T15:01:35.944Z,83.90
2023-01-15T15:04:24.692Z,82.80
2023-01-15T15:07:16.590Z,82.40
2023-01-15T15:10:06.910Z,81.30
2023-01-15T15:13:27.930Z,80.70
2023-01-15T15:16:26.251Z,80.30
2023-01-15T15:19:23.885Z,79.60
2023-01-15T15:22:15.141Z,78.80
2023-01-15T15:25:09.208Z,79.10
2023-01-15T15:28:06.011Z,79.50
2023-01-15T15:30:53.236Z,80.30
2023-01-15T15:33:42.084Z,80.90
2023-01-15T15:36:32.237Z,81.20
2023-01-15T15:39:28.311Z,81.00
2023-01-15T15:42:38.835Z,81.60
2023-01-15T15:45:50.174Z,82.10
2023-01-15T15:48:42.460Z,82.80
2023-01-15T15:51:49.890Z,83.20
2023-01-15T15:54:35.120Z,83.50
2023-01-15T15:57:20.789Z,84.00
2023-01-15T16:00:18.054Z,84.80
2023-01-15T16:03:18.430Z,86.20
2023-01-15T16:06:20.358Z,87.40
2023-01-15T16:09:10.127Z,88.40
2023-01-15T16:12:07.221Z,88.30
2023-01-15T16:15:24.529Z,89.20
2023-01-15T16:18:22.449Z,89.80
2023-01-15T16:21:16.146Z,90.00
2023-01-15T16:24:03.784Z,90.00
2023-01-15T16:26:56.838Z,89.80
2023-01-15T16:29:51.536Z,90.00
2023-01-15T16:32:39.170Z,90.00
2023-01-15T16:35:30.799Z,90.10
2023-01-15T16:38:26.402Z,90.10
2023-01-15T16:41:34.441Z,90.20
2023-01-15T16:44:36.614Z,90.00
2023-01-15T16:47:25.736Z,90.80
2023-01-15T16:50:23.396Z,92.00
2023-01-15T16:53:29.702Z,92.60
2023-01-15T16:56:44.551Z,92.80
2023-01-15T16:59:30.254Z,93.00
2023-01-15T17:02:20.309Z,93.30
2023-01-15T17:05:23.565Z,93.50
2023-01-15T17:08:20.326Z,93.90
2023-01-15T17:11:17.384Z,94.10
2023-01-15T17:14:24.264Z,94.50
2023-01-15T17:17:21.858Z,94.30
2023-01-15T17:20:11.878Z,94.50
2023-01-15T17:22:57.556Z,94.70
2023-01-15T17:25:43.087Z,94.80
2023-01-15T17:28:28.697Z,94.60
2023-01-15T17:31:28.319Z,94.80
2023-01-15T17:34:13.556Z,94.70
2023-01-15T17:36:59.217Z,94.40
2023-01-15T17:39:44.805Z,94.50
2023-01-15T17:42:30.202Z,94.60
2023-01-15T17:45:21.476Z,94.60
2023-01-15T17:48:08.953Z,94.70
2023-01-15T17:51:04.420Z,94.80
2023-01-15T17:53:49.852Z,94.40
2023-01-15T17:56:54.084Z,94.60
2023-01-15T17:59:57.952Z,94.90
2023-01-15T18:03:05.064Z,95.00
2023-01-15T18:05:51.696Z,95.20
2023-01-15T18:08:39.285Z,95.30
2023-01-15T18:11:24.762Z,95.20
2023-01-15T18:14:10.258Z,95.20
2023-01-15T18:16:58.157Z,95.00
2023-01-15T18:19:43.629Z,94.80
2023-01-15T18:22:31.139Z,94.80
2023-01-15T18:25:16.904Z,94.70
2023-01-15T18:28:02.387Z,94.60
2023-01-15T18:30:48.338Z,94.60
2023-01-15T18:33:37.260Z,94.50
2023-01-15T18:36:22.866Z,94.50
2023-01-15T18:39:12.361Z,94.40
2023-01-15T18:42:00.427Z,94.60
2023-01-15T18:45:14.630Z,94.50
2023-01-15T18:48:05.054Z,94.50
2023-01-15T18:50:53.231Z,94.10
2023-01-15T18:53:39.104Z,94.10
2023-01-15T18:56:39.512Z,94.10
2023-01-15T18:59:25.005Z,94.00
2023-01-15T19:02:17.577Z,94.00
2023-01-15T19:05:05.697Z,93.80
2023-01-15T19:07:51.308Z,93.70
2023-01-15T19:10:36.807Z,93.60
2023-01-15T19:13:22.349Z,93.70
2023-01-15T19:16:26.507Z,93.60
2023-01-15T19:19:11.694Z,93.70
2023-01-15T19:22:15.834Z,93.70
2023-01-15T19:25:02.006Z,94.00
2023-01-15T19:27:48.366Z,93.70
2023-01-15T19:30:40.901Z,93.70
2023-01-15T19:33:28.744Z,93.40
2023-01-15T19:36:14.241Z,93.30
2023-01-15T19:39:02.405Z,93.30
2023-01-15T19:42:06.425Z,93.30
2023-01-15T19:45:10.185Z,93.20
2023-01-15T19:48:13.909Z,93.30
2023-01-15T19:50:59.471Z,93.50
2023-01-15T19:53:47.572Z,93.40
2023-01-15T19:56:32.895Z,93.40
2023-01-15T19:59:18.570Z,93.40
2023-01-15T20:02:04.583Z,94.00
2023-01-15T20:04:50.608Z,93.60
2023-01-15T20:07:36.305Z,93.50
2023-01-15T20:10:23.908Z,93.70
2023-01-15T20:13:39.390Z,94.00
2023-01-15T20:16:28.834Z,93.70
2023-01-15T20:19:13.904Z,94.00
2023-01-15T20:21:59.382Z,93.50
2023-01-15T20:24:47.916Z,93.50
2023-01-15T20:27:36.767Z,93.40
2023-01-15T20:30:23.696Z,93.50
2023-01-15T20:33:09.672Z,93.60
2023-01-15T20:35:55.048Z,93.60
2023-01-15T20:38:40.673Z,93.50
2023-01-15T20:41:44.498Z,93.60
2023-01-15T20:44:48.305Z,93.70
2023-01-15T20:47:52.397Z,93.90
2023-01-15T20:50:39.043Z,94.00
2023-01-15T20:53:24.215Z,94.40
2023-01-15T20:56:17.448Z,94.30
2023-01-15T20:59:12.011Z,94.50
2023-01-15T21:01:57.620Z,94.70
2023-01-15T21:04:43.157Z,94.80
2023-01-15T21:07:30.672Z,94.90
2023-01-15T21:10:18.670Z,95.00
2023-01-15T21:13:04.958Z,94.90
2023-01-15T21:16:08.342Z,94.90
2023-01-15T21:18:53.561Z,94.90
2023-01-15T21:21:39.120Z,94.70
2023-01-15T21:24:27.179Z,94.80
2023-01-15T21:27:12.630Z,94.90
2023-01-15T21:29:58.499Z,95.00
2023-01-15T21:32:46.233Z,95.00
2023-01-15T21:35:31.611Z,95.10
2023-01-15T21:38:17.219Z,95.20
2023-01-15T21:41:14.435Z,95.30
2023-01-15T21:44:34.628Z,95.20
2023-01-15T21:47:22.875Z,95.20
2023-01-15T21:50:11.369Z,95.30
2023-01-15T21:52:59.571Z,95.40
2023-01-15T21:55:49.901Z,95.50
2023-01-15T21:58:49.005Z,95.50
2023-01-15T22:01:34.199Z,95.60
2023-01-15T22:04:26.527Z,95.60
2023-01-15T22:07:14.021Z,95.70
2023-01-15T22:10:02.005Z,95.70
2023-01-15T22:12:47.617Z,95.70
2023-01-15T22:15:35.857Z,95.80
2023-01-15T22:18:26.286Z,95.80
2023-01-15T22:21:15.603Z,95.90
2023-01-15T22:24:04.705Z,96.00
2023-01-15T22:26:57.202Z,96.00
2023-01-15T22:29:45.868Z,96.10
2023-01-15T22:32:32.795Z,96.00
2023-01-15T22:35:18.754Z,95.80
2023-01-15T22:38:04.009Z,95.80
2023-01-15T22:40:49.509Z,95.80
2023-01-15T22:43:35.893Z,95.90
2023-01-15T22:46:27.047Z,95.90
2023-01-15T22:49:15.472Z,96.10
2023-01-15T22:52:00.990Z,96.40
2023-01-15T22:54:49.132Z,96.60
2023-01-15T22:57:59.543Z,96.50
2023-01-15T23:00:45.056Z,96.30
2023-01-15T23:03:40.176Z,96.50
2023-01-15T23:06:27.306Z,96.60
2023-01-15T23:09:13.551Z,96.40
2023-01-15T23:11:59.009Z,96.40
2023-01-15T23:14:44.414Z,96.50
2023-01-15T23:17:30.004Z,96.60
2023-01-15T23:20:18.048Z,96.70
2023-01-15T23:23:03.400Z,97.00
2023-01-15T23:25:50.181Z,96.90
2023-01-15T23:28:35.832Z,96.80
2023-01-15T23:31:22.001Z,96.70
2023-01-15T23:34:08.943Z,96.80
2023-01-15T23:36:57.207Z,96.60
2023-01-15T23:39:45.767Z,96.60
2023-01-15T23:42:53.117Z,96.50
2023-01-15T23:45:57.155Z,96.20
2023-01-15T23:48:42.800Z,96.30
2023-01-15T23:51:31.032Z,96.50
2023-01-15T23:54:19.173Z,96.70
2023-01-15T23:57:04.686Z,96.90
2023-01-15T23:59:52.468Z,96.90
